Time;durP1;ratioP1;P1;durP2;ratioP2;P2;SDS_P1;SDS_P2;PMS_P1;PMS_P2;Temp;Humidity;BMP_temperature;BMP_pressure;BME280_temperature;BME280_humidity;BME280_pressure;Samples;Min_cycle;Max_cycle;Signal;HPM_P1;HPM_P2
2021/04/27 00:02:15;;;;;;;2.25;1.30;;;;;;;;;;5057021;28;20083;-82
2021/04/27 00:04:41;;;;;;;3.85;1.38;;;;;;;;;;5056980;28;20036;-80
2021/04/27 00:07:07;;;;;;;5.40;1.38;;;;;;;;;;5047990;28;20110;-80
2021/04/27 00:09:33;;;;;;;3.53;1.25;;;;;;;;;;5055060;28;20018;-80
2021/04/27 00:11:59;;;;;;;3.72;1.60;;;;;;;;;;5057101;28;20055;-80
2021/04/27 00:14:26;;;;;;;2.38;1.42;;;;;;;;;;5051933;28;20048;-80
2021/04/27 00:16:52;;;;;;;3.85;1.60;;;;;;;;;;5037789;28;20043;-80
2021/04/27 00:19:18;;;;;;;3.45;1.85;;;;;;;;;;5051323;28;20032;-80
2021/04/27 00:21:44;;;;;;;4.40;1.60;;;;;;;;;;5056236;28;20111;-80
2021/04/27 00:24:11;;;;;;;2.35;1.48;;;;;;;;;;5072882;28;20538;-80
2021/04/27 00:26:37;;;;;;;4.38;1.60;;;;;;;;;;5056521;28;20109;-80
2021/04/27 00:29:04;;;;;;;3.17;1.58;;;;;;;;;;5056051;28;20055;-80
2021/04/27 00:31:30;;;;;;;4.55;1.50;;;;;;;;;;5073989;28;20099;-80
2021/04/27 00:33:57;;;;;;;3.58;1.38;;;;;;;;;;5056298;28;20031;-81
2021/04/27 00:36:23;;;;;;;3.50;1.33;;;;;;;;;;5073721;28;20048;-82
2021/04/27 00:38:49;;;;;;;2.65;1.20;;;;;;;;;;5056375;28;20119;-82
2021/04/27 00:41:15;;;;;;;4.55;1.70;;;;;;;;;;5074469;28;20036;-81
2021/04/27 00:43:41;;;;;;;1.90;1.23;;;;;;;;;;5056432;28;20055;-82
2021/04/27 00:46:07;;;;;;;3.83;2.00;;;;;;;;;;5056409;28;20040;-82
2021/04/27 00:48:33;;;;;;;2.40;1.55;;;;;;;;;;5056156;28;20396;-82
2021/04/27 00:50:59;;;;;;;2.22;1.45;;;;;;;;;;5056348;28;20021;-82
2021/04/27 00:53:26;;;;;;;3.85;1.80;;;;;;;;;;5056057;28;20017;-82
2021/04/27 00:55:52;;;;;;;4.40;1.58;;;;;;;;;;5073870;28;20021;-82
2021/04/27 00:58:20;;;;;;;2.47;1.40;;;;;;;;;;5053459;28;20032;-82
2021/04/27 01:00:46;;;;;;;6.03;1.80;;;;;;;;;;5053663;28;20025;-82
2021/04/27 01:03:12;;;;;;;4.22;1.80;;;;;;;;;;5055634;28;20395;-82
2021/04/27 01:05:38;;;;;;;3.92;1.67;;;;;;;;;;5051706;28;20033;-82
2021/04/27 01:08:10;;;;;;;3.42;1.55;;;;;;;;;;5042837;28;20136;-82
2021/04/27 01:10:55;;;;;;;3.22;1.50;;;;;;;;;;5055949;28;20462;-82
2021/04/27 01:13:41;;;;;;;1.98;1.40;;;;;;;;;;5066344;28;20070;-82
2021/04/27 01:16:08;;;;;;;3.22;1.80;;;;;;;;;;5055836;28;20131;-82
2021/04/27 01:18:35;;;;;;;2.47;1.50;;;;;;;;;;5072412;28;20429;-82
2021/04/27 01:21:02;;;;;;;4.95;1.63;;;;;;;;;;5072421;28;20035;-82
2021/04/27 01:23:43;;;;;;;5.40;1.67;;;;;;;;;;5051197;28;20468;-82
2021/04/27 01:26:13;;;;;;;2.13;1.30;;;;;;;;;;5053465;28;20028;-82
2021/04/27 01:28:39;;;;;;;4.05;1.40;;;;;;;;;;5036018;28;20021;-82
2021/04/27 01:31:06;;;;;;;3.03;1.80;;;;;;;;;;5055136;28;20028;-81
2021/04/27 01:33:32;;;;;;;3.55;1.45;;;;;;;;;;5055405;28;20031;-82
2021/04/27 01:36:00;;;;;;;2.30;1.40;;;;;;;;;;5055579;28;20027;-82
2021/04/27 01:38:27;;;;;;;2.42;1.50;;;;;;;;;;5076139;28;20561;-82
2021/04/27 01:40:53;;;;;;;2.55;1.27;;;;;;;;;;5059416;28;20073;-82
2021/04/27 01:43:19;;;;;;;4.65;1.45;;;;;;;;;;5056344;28;20027;-82
2021/04/27 01:45:47;;;;;;;1.83;1.30;;;;;;;;;;5054556;28;20473;-82
2021/04/27 01:48:13;;;;;;;4.07;1.48;;;;;;;;;;5077378;28;20033;-82
2021/04/27 01:50:41;;;;;;;4.95;1.65;;;;;;;;;;5059770;28;20029;-82
2021/04/27 01:53:08;;;;;;;2.45;1.30;;;;;;;;;;5059614;28;20024;-82
2021/04/27 01:55:34;;;;;;;2.55;1.25;;;;;;;;;;5040038;28;20052;-82
2021/04/27 01:58:00;;;;;;;3.72;1.48;;;;;;;;;;5045652;28;20079;-81
2021/04/27 02:00:26;;;;;;;2.47;1.33;;;;;;;;;;5077025;28;20025;-82
2021/04/27 02:02:52;;;;;;;4.57;1.60;;;;;;;;;;5052484;28;20025;-82
2021/04/27 02:05:18;;;;;;;2.83;1.20;;;;;;;;;;5056464;28;20513;-82
2021/04/27 02:07:44;;;;;;;2.45;1.50;;;;;;;;;;5055171;28;20087;-82
2021/04/27 02:10:11;;;;;;;4.85;1.77;;;;;;;;;;5055925;28;20033;-82
2021/04/27 02:12:39;;;;;;;4.10;1.33;;;;;;;;;;5076931;28;20029;-82
2021/04/27 02:15:06;;;;;;;2.30;1.83;;;;;;;;;;5059294;28;20048;-82
2021/04/27 02:17:34;;;;;;;2.78;1.45;;;;;;;;;;5077002;28;20024;-82
2021/04/27 02:20:00;;;;;;;2.50;1.38;;;;;;;;;;5059266;28;20128;-82
2021/04/27 02:22:27;;;;;;;3.65;1.38;;;;;;;;;;5074160;28;20527;-82
2021/04/27 02:24:55;;;;;;;3.10;1.42;;;;;;;;;;5071155;28;20035;-82
2021/04/27 02:27:22;;;;;;;2.65;1.60;;;;;;;;;;5076564;28;20412;-82
2021/04/27 02:29:48;;;;;;;1.67;1.33;;;;;;;;;;5068322;28;20029;-82
2021/04/27 02:32:14;;;;;;;4.15;1.45;;;;;;;;;;5058592;28;20024;-82
2021/04/27 02:34:42;;;;;;;2.55;1.50;;;;;;;;;;5058358;28;20479;-82
2021/04/27 02:37:08;;;;;;;3.38;1.60;;;;;;;;;;5057286;28;20037;-82
2021/04/27 02:39:34;;;;;;;2.78;1.58;;;;;;;;;;5076330;28;20028;-82
2021/04/27 02:42:02;;;;;;;2.70;1.50;;;;;;;;;;5055768;28;20024;-82
2021/04/27 02:44:28;;;;;;;2.83;1.50;;;;;;;;;;5058101;28;20496;-82
2021/04/27 02:46:54;;;;;;;2.65;1.30;;;;;;;;;;5076131;28;20494;-82
2021/04/27 02:49:20;;;;;;;2.95;1.30;;;;;;;;;;5058377;28;20036;-82
2021/04/27 02:51:46;;;;;;;2.10;1.27;;;;;;;;;;5058196;28;20163;-82
2021/04/27 02:54:12;;;;;;;2.55;1.98;;;;;;;;;;5056502;28;20408;-82
2021/04/27 02:56:38;;;;;;;5.63;1.38;;;;;;;;;;5057594;28;20032;-82
2021/04/27 02:59:05;;;;;;;2.55;1.27;;;;;;;;;;5068832;28;20049;-82
2021/04/27 03:01:31;;;;;;;2.50;1.58;;;;;;;;;;5058409;28;20017;-82
2021/04/27 03:03:57;;;;;;;3.47;1.90;;;;;;;;;;5057969;28;20025;-82
2021/04/27 03:06:23;;;;;;;4.25;1.83;;;;;;;;;;5057739;28;20021;-82
2021/04/27 03:08:49;;;;;;;4.28;1.60;;;;;;;;;;5057570;28;20044;-81
2021/04/27 03:11:15;;;;;;;5.00;1.52;;;;;;;;;;5076203;28;20067;-81
2021/04/27 03:13:41;;;;;;;3.60;1.60;;;;;;;;;;5054279;28;20384;-82
2021/04/27 03:16:07;;;;;;;5.05;1.70;;;;;;;;;;5053917;28;20059;-82
2021/04/27 03:18:33;;;;;;;2.42;1.42;;;;;;;;;;5056527;28;20027;-82
2021/04/27 03:20:59;;;;;;;4.63;1.50;;;;;;;;;;5057933;28;20034;-82
2021/04/27 03:23:25;;;;;;;2.63;1.50;;;;;;;;;;5053433;28;20025;-82
2021/04/27 03:25:51;;;;;;;4.30;1.50;;;;;;;;;;5050619;28;20082;-82
2021/04/27 03:28:17;;;;;;;3.90;1.95;;;;;;;;;;5075741;28;20027;-82
2021/04/27 03:30:43;;;;;;;3.97;1.77;;;;;;;;;;5075616;28;20048;-81
2021/04/27 03:33:09;;;;;;;2.97;1.67;;;;;;;;;;5045987;28;20055;-82
2021/04/27 03:35:35;;;;;;;4.63;2.00;;;;;;;;;;5057634;28;20040;-82
2021/04/27 03:38:02;;;;;;;3.90;1.88;;;;;;;;;;5052713;28;20021;-82
2021/04/27 03:40:28;;;;;;;3.20;1.58;;;;;;;;;;5042248;28;20123;-82
2021/04/27 03:42:54;;;;;;;4.05;2.05;;;;;;;;;;5055673;28;20484;-82
2021/04/27 03:45:21;;;;;;;3.17;1.77;;;;;;;;;;5074631;28;20029;-82
2021/04/27 03:47:47;;;;;;;4.93;2.13;;;;;;;;;;5050796;28;20071;-82
2021/04/27 03:50:19;;;;;;;3.92;2.10;;;;;;;;;;5046622;28;20119;-81
2021/04/27 03:52:45;;;;;;;4.68;2.10;;;;;;;;;;5040445;28;20124;-81
2021/04/27 03:55:12;;;;;;;3.20;1.88;;;;;;;;;;5052325;28;20041;-81
2021/04/27 03:57:38;;;;;;;5.85;2.13;;;;;;;;;;5057592;28;20033;-81
2021/04/27 04:00:07;;;;;;;3.10;2.08;;;;;;;;;;5056866;28;20033;-81
2021/04/27 04:02:33;;;;;;;3.25;2.00;;;;;;;;;;5056762;28;20028;-81
2021/04/27 04:04:59;;;;;;;5.35;2.17;;;;;;;;;;5074591;28;20028;-81
2021/04/27 04:07:25;;;;;;;4.22;2.20;;;;;;;;;;5055871;28;20079;-81
2021/04/27 04:09:51;;;;;;;4.60;2.20;;;;;;;;;;5072622;28;20021;-81
2021/04/27 04:12:17;;;;;;;4.13;2.50;;;;;;;;;;5074617;28;20043;-81
2021/04/27 04:14:43;;;;;;;4.45;2.50;;;;;;;;;;5072131;28;20108;-81
2021/04/27 04:17:09;;;;;;;5.00;2.58;;;;;;;;;;5036843;28;20115;-81
2021/04/27 04:19:36;;;;;;;7.03;2.33;;;;;;;;;;5049175;28;20024;-81
2021/04/27 04:22:03;;;;;;;5.35;2.72;;;;;;;;;;5036763;28;20032;-81
2021/04/27 04:24:29;;;;;;;3.50;2.35;;;;;;;;;;5046274;28;20024;-81
2021/04/27 04:26:55;;;;;;;5.78;2.35;;;;;;;;;;5074650;28;20107;-81
2021/04/27 04:29:24;;;;;;;4.75;2.90;;;;;;;;;;5046852;28;20021;-82
2021/04/27 04:31:50;;;;;;;7.22;2.97;;;;;;;;;;5056996;28;20066;-82
2021/04/27 04:34:16;;;;;;;5.68;2.70;;;;;;;;;;5050212;28;20028;-81
2021/04/27 04:36:43;;;;;;;5.18;2.80;;;;;;;;;;5074308;28;20017;-81
2021/04/27 04:39:09;;;;;;;8.55;3.33;;;;;;;;;;5073952;28;20024;-80
2021/04/27 04:41:59;;;;;;;6.20;2.80;;;;;;;;;;5056068;28;20111;-81
2021/04/27 04:44:25;;;;;;;6.40;3.10;;;;;;;;;;5056628;28;20020;-82
2021/04/27 04:46:51;;;;;;;4.38;2.97;;;;;;;;;;5056162;28;20028;-82
2021/04/27 04:49:17;;;;;;;8.25;3.53;;;;;;;;;;5053433;28;20023;-84
2021/04/27 04:51:43;;;;;;;5.45;3.17;;;;;;;;;;5065974;28;20020;-82
2021/04/27 04:54:09;;;;;;;7.80;3.53;;;;;;;;;;5073388;28;20071;-82
2021/04/27 04:56:35;;;;;;;7.85;3.50;;;;;;;;;;5037544;28;20029;-83
2021/04/27 04:59:01;;;;;;;8.07;3.53;;;;;;;;;;5055756;28;20028;-82
2021/04/27 05:01:27;;;;;;;6.28;3.22;;;;;;;;;;5065214;28;20032;-82
2021/04/27 05:03:53;;;;;;;5.88;3.03;;;;;;;;;;5073765;28;20048;-82
2021/04/27 05:06:20;;;;;;;6.15;3.35;;;;;;;;;;5043406;28;20033;-81
2021/04/27 05:08:49;;;;;;;10.68;3.67;;;;;;;;;;5072731;28;20048;-82
2021/04/27 05:11:15;;;;;;;5.45;2.85;;;;;;;;;;5055016;28;20055;-81
2021/04/27 05:13:41;;;;;;;7.45;3.58;;;;;;;;;;5055196;28;20698;-82
2021/04/27 05:16:08;;;;;;;8.55;3.20;;;;;;;;;;5050114;28;20040;-81
2021/04/27 05:18:35;;;;;;;6.30;3.30;;;;;;;;;;5073080;28;20029;-82
2021/04/27 05:21:01;;;;;;;11.60;4.05;;;;;;;;;;5050960;28;20427;-82
2021/04/27 05:23:27;;;;;;;9.13;3.55;;;;;;;;;;5045428;28;20020;-83
2021/04/27 05:25:53;;;;;;;6.50;3.10;;;;;;;;;;5068147;28;20476;-84
2021/04/27 05:28:19;;;;;;;6.15;2.97;;;;;;;;;;5059581;28;20032;-82
2021/04/27 05:30:45;;;;;;;13.48;3.03;;;;;;;;;;5055750;28;20091;-83
2021/04/27 05:33:11;;;;;;;5.57;2.53;;;;;;;;;;5056004;28;20085;-83
2021/04/27 05:35:37;;;;;;;5.88;3.10;;;;;;;;;;5073322;28;20017;-81
2021/04/27 05:38:03;;;;;;;8.88;2.80;;;;;;;;;;5038925;28;20025;-82
2021/04/27 05:40:29;;;;;;;4.03;2.13;;;;;;;;;;5072910;28;20566;-83
2021/04/27 05:42:56;;;;;;;6.28;2.63;;;;;;;;;;5055590;28;20067;-83
2021/04/27 05:45:22;;;;;;;4.43;2.80;;;;;;;;;;5074341;28;20111;-83
2021/04/27 05:47:48;;;;;;;5.22;3.10;;;;;;;;;;5048428;28;20116;-82
2021/04/27 05:50:14;;;;;;;5.20;2.60;;;;;;;;;;5049068;28;20560;-84
2021/04/27 05:52:40;;;;;;;7.47;2.85;;;;;;;;;;5073525;28;20016;-83
2021/04/27 05:55:06;;;;;;;5.32;2.30;;;;;;;;;;5064269;28;20032;-84
2021/04/27 05:57:32;;;;;;;4.93;2.30;;;;;;;;;;5053444;28;20060;-83
2021/04/27 05:59:58;;;;;;;4.30;2.47;;;;;;;;;;5054389;28;20120;-84
2021/04/27 06:02:24;;;;;;;2.78;1.65;;;;;;;;;;5056128;28;20048;-84
2021/04/27 06:04:50;;;;;;;9.18;2.45;;;;;;;;;;5055800;28;20476;-83
2021/04/27 06:07:16;;;;;;;3.17;1.60;;;;;;;;;;5055867;28;20104;-84
2021/04/27 06:09:42;;;;;;;5.00;2.33;;;;;;;;;;5054607;28;20025;-84
2021/04/27 06:12:08;;;;;;;4.78;2.05;;;;;;;;;;5054894;28;20040;-82
2021/04/27 06:14:34;;;;;;;3.55;2.20;;;;;;;;;;5055279;28;20039;-83
2021/04/27 06:17:00;;;;;;;3.20;2.10;;;;;;;;;;5054470;28;20021;-84
2021/04/27 06:19:26;;;;;;;3.20;1.70;;;;;;;;;;5052679;28;20480;-83
2021/04/27 06:21:53;;;;;;;6.78;2.40;;;;;;;;;;5055336;28;20108;-84
2021/04/27 06:24:19;;;;;;;3.75;2.30;;;;;;;;;;5058373;28;20013;-83
2021/04/27 06:26:45;;;;;;;5.82;2.10;;;;;;;;;;5059608;28;20031;-84
2021/04/27 06:29:11;;;;;;;6.13;2.22;;;;;;;;;;5077129;28;20088;-83
2021/04/27 06:31:37;;;;;;;4.22;1.67;;;;;;;;;;5059592;28;20158;-84
2021/04/27 06:34:04;;;;;;;3.63;1.40;;;;;;;;;;5059547;28;20051;-84
2021/04/27 06:36:31;;;;;;;4.03;1.70;;;;;;;;;;5076032;28;20355;-84
2021/04/27 06:38:57;;;;;;;9.88;1.75;;;;;;;;;;5075574;28;20553;-84
2021/04/27 06:41:23;;;;;;;3.75;1.30;;;;;;;;;;5071476;28;20477;-83
2021/04/27 06:43:50;;;;;;;2.05;1.45;;;;;;;;;;5050597;28;20472;-84
2021/04/27 06:46:16;;;;;;;2.08;1.55;;;;;;;;;;5070089;28;20487;-84
2021/04/27 06:48:42;;;;;;;4.03;1.70;;;;;;;;;;5062165;28;20060;-84
2021/04/27 06:51:09;;;;;;;2.42;1.35;;;;;;;;;;5074982;28;20054;-83
2021/04/27 06:53:35;;;;;;;2.45;1.55;;;;;;;;;;5058600;28;20544;-83
2021/04/27 06:56:02;;;;;;;3.75;1.40;;;;;;;;;;5056830;28;20029;-83
2021/04/27 06:58:28;;;;;;;2.78;1.85;;;;;;;;;;5054725;28;20048;-84
2021/04/27 07:00:54;;;;;;;5.40;1.70;;;;;;;;;;5056787;28;20029;-83
2021/04/27 07:03:20;;;;;;;3.42;1.35;;;;;;;;;;5054435;28;20035;-83
2021/04/27 07:05:46;;;;;;;2.38;1.17;;;;;;;;;;5056010;28;20071;-83
2021/04/27 07:08:12;;;;;;;3.63;1.33;;;;;;;;;;5055553;28;20526;-84
2021/04/27 07:10:38;;;;;;;3.38;1.88;;;;;;;;;;5054164;28;20025;-84
2021/04/27 07:13:04;;;;;;;4.65;1.60;;;;;;;;;;5044218;28;20071;-84
2021/04/27 07:15:30;;;;;;;2.97;1.65;;;;;;;;;;5073880;28;20025;-83
2021/04/27 07:17:56;;;;;;;4.05;1.27;;;;;;;;;;5057258;28;20028;-84
2021/04/27 07:20:22;;;;;;;5.13;1.15;;;;;;;;;;5057074;28;20075;-84
2021/04/27 07:22:48;;;;;;;3.80;1.30;;;;;;;;;;5052192;28;20067;-83
2021/04/27 07:25:15;;;;;;;3.05;1.70;;;;;;;;;;5054935;28;20078;-83
2021/04/27 07:27:42;;;;;;;6.15;2.20;;;;;;;;;;5057116;28;20032;-84
2021/04/27 07:30:09;;;;;;;4.22;1.83;;;;;;;;;;5051932;28;20056;-84
2021/04/27 07:32:35;;;;;;;2.95;1.50;;;;;;;;;;5074175;28;20385;-83
2021/04/27 07:35:02;;;;;;;5.03;1.40;;;;;;;;;;5071287;28;20483;-83
2021/04/27 07:37:28;;;;;;;2.45;1.50;;;;;;;;;;5052781;28;20031;-82
2021/04/27 07:39:54;;;;;;;1.50;0.90;;;;;;;;;;5046698;28;20464;-82
2021/04/27 07:42:20;;;;;;;2.70;1.33;;;;;;;;;;5067802;28;20032;-83
2021/04/27 07:44:46;;;;;;;2.85;1.40;;;;;;;;;;5056240;28;20024;-83
2021/04/27 07:47:12;;;;;;;2.63;1.20;;;;;;;;;;5071469;28;20029;-82
2021/04/27 07:49:38;;;;;;;3.05;1.30;;;;;;;;;;5069304;28;20025;-83
2021/04/27 07:52:04;;;;;;;2.30;1.38;;;;;;;;;;5048436;28;20020;-83
2021/04/27 07:54:30;;;;;;;2.85;1.20;;;;;;;;;;5047704;28;20023;-83
2021/04/27 07:56:56;;;;;;;4.35;0.93;;;;;;;;;;5056000;28;20106;-84
2021/04/27 07:59:22;;;;;;;2.67;1.38;;;;;;;;;;5052635;28;20052;-83
2021/04/27 08:01:48;;;;;;;6.07;1.20;;;;;;;;;;5048958;28;20111;-84
2021/04/27 08:04:15;;;;;;;2.08;1.10;;;;;;;;;;5036918;28;20025;-83
2021/04/27 08:06:41;;;;;;;1.90;1.20;;;;;;;;;;5054586;28;20179;-84
2021/04/27 08:09:08;;;;;;;5.00;1.17;;;;;;;;;;5050225;28;20039;-83
2021/04/27 08:11:34;;;;;;;2.30;1.30;;;;;;;;;;5051459;28;20392;-84
2021/04/27 08:14:00;;;;;;;4.15;1.70;;;;;;;;;;5068943;28;20445;-81
2021/04/27 08:16:26;;;;;;;3.17;1.27;;;;;;;;;;5047375;28;20024;-83
2021/04/27 08:18:52;;;;;;;5.63;1.20;;;;;;;;;;5050983;28;20024;-84
2021/04/27 08:21:19;;;;;;;2.50;1.15;;;;;;;;;;5053220;28;20033;-83
2021/04/27 08:23:45;;;;;;;2.90;1.33;;;;;;;;;;5041688;28;20394;-84
2021/04/27 08:26:12;;;;;;;3.72;1.45;;;;;;;;;;5065074;28;20052;-84
2021/04/27 08:28:38;;;;;;;2.92;1.25;;;;;;;;;;5052293;28;20063;-85
2021/04/27 08:31:04;;;;;;;1.88;1.10;;;;;;;;;;5052158;28;20112;-83
2021/04/27 08:33:30;;;;;;;1.65;1.10;;;;;;;;;;5056524;28;20025;-83
2021/04/27 08:35:56;;;;;;;3.03;1.38;;;;;;;;;;5051163;28;20009;-86
2021/04/27 08:38:22;;;;;;;4.10;1.45;;;;;;;;;;5037735;28;20033;-85
2021/04/27 08:40:49;;;;;;;3.08;1.08;;;;;;;;;;5039604;28;20477;-85
2021/04/27 08:43:15;;;;;;;6.47;1.42;;;;;;;;;;5048287;28;20029;-85
2021/04/27 08:45:42;;;;;;;2.50;1.10;;;;;;;;;;5061421;28;20062;-86
2021/04/27 08:48:09;;;;;;;5.85;1.33;;;;;;;;;;5051252;28;20037;-84
2021/04/27 08:50:36;;;;;;;2.97;1.20;;;;;;;;;;5051045;28;20071;-85
2021/04/27 08:53:02;;;;;;;4.22;1.50;;;;;;;;;;5046070;28;20047;-85
2021/04/27 08:55:28;;;;;;;2.25;1.17;;;;;;;;;;5053761;28;20417;-86
2021/04/27 08:57:54;;;;;;;3.20;1.20;;;;;;;;;;5061984;28;20035;-85
2021/04/27 09:00:22;;;;;;;3.70;0.95;;;;;;;;;;5057236;28;20472;-83
2021/04/27 09:02:55;;;;;;;2.75;1.17;;;;;;;;;;5055998;28;20029;-83
2021/04/27 09:05:21;;;;;;;;;;;;;;;;;;5051662;28;20039;-84
2021/04/27 09:07:48;;;;;;;3.15;1.00;;;;;;;;;;5051484;28;19916;-83
2021/04/27 09:10:15;;;;;;;2.28;1.00;;;;;;;;;;5042360;28;20064;-83
2021/04/27 09:12:46;;;;;;;2.85;1.10;;;;;;;;;;5059703;28;20472;-83
2021/04/27 09:15:22;;;;;;;1.35;0.80;;;;;;;;;;5040790;28;20040;-83
2021/04/27 09:17:48;;;;;;;1.98;0.88;;;;;;;;;;5062728;28;20048;-83
2021/04/27 09:20:14;;;;;;;3.35;1.20;;;;;;;;;;5068344;28;20408;-83
2021/04/27 09:22:41;;;;;;;2.22;1.15;;;;;;;;;;5047269;28;20025;-83
2021/04/27 09:25:11;;;;;;;2.80;1.00;;;;;;;;;;5058906;28;20027;-85
2021/04/27 09:27:38;;;;;;;1.23;0.80;;;;;;;;;;5042934;28;20036;-83
2021/04/27 09:30:11;;;;;;;2.00;0.90;;;;;;;;;;5055893;28;20097;-83
2021/04/27 09:32:38;;;;;;;8.05;0.95;;;;;;;;;;5045563;28;20033;-83
2021/04/27 09:35:23;;;;;;;1.33;0.90;;;;;;;;;;5054285;28;20086;-83
2021/04/27 09:38:08;;;;;;;1.45;0.80;;;;;;;;;;5082931;28;20024;-83
2021/04/27 09:40:44;;;;;;;1.88;0.47;;;;;;;;;;5057375;28;20028;-85
2021/04/27 09:43:10;;;;;;;1.30;0.60;;;;;;;;;;5055902;28;20031;-83
2021/04/27 09:45:43;;;;;;;2.33;0.70;;;;;;;;;;5053232;28;20839;-83
2021/04/27 09:48:10;;;;;;;1.40;0.77;;;;;;;;;;5055481;28;20034;-82
2021/04/27 09:50:37;;;;;;;2.00;0.82;;;;;;;;;;5072194;28;20431;-78
2021/04/27 09:53:03;;;;;;;2.17;1.10;;;;;;;;;;5070610;28;20036;-78
2021/04/27 09:55:31;;;;;;;1.30;0.80;;;;;;;;;;5049662;28;20046;-85
2021/04/27 09:57:58;;;;;;;2.55;1.17;;;;;;;;;;5053559;28;20032;-83
2021/04/27 10:00:31;;;;;;;1.08;0.70;;;;;;;;;;5072077;28;20464;-83
2021/04/27 10:02:59;;;;;;;1.77;0.73;;;;;;;;;;5055004;28;20024;-83
2021/04/27 10:05:25;;;;;;;1.60;0.90;;;;;;;;;;5050704;28;20036;-82
2021/04/27 10:07:52;;;;;;;1.67;0.77;;;;;;;;;;5054073;28;20037;-82
2021/04/27 10:10:19;;;;;;;2.30;0.63;;;;;;;;;;5075641;28;20492;-83
2021/04/27 10:12:46;;;;;;;1.40;0.63;;;;;;;;;;5064038;28;20029;-83
2021/04/27 10:15:12;;;;;;;2.67;1.00;;;;;;;;;;5074994;28;20028;-84
2021/04/27 10:17:39;;;;;;;1.77;0.93;;;;;;;;;;5055964;28;20388;-83
2021/04/27 10:20:07;;;;;;;2.30;1.00;;;;;;;;;;5065986;28;20457;-82
2021/04/27 10:22:33;;;;;;;1.15;0.75;;;;;;;;;;5055159;28;20124;-82
2021/04/27 10:24:59;;;;;;;3.65;0.90;;;;;;;;;;5047953;28;20548;-83
2021/04/27 10:27:29;;;;;;;3.97;0.90;;;;;;;;;;5056271;28;20086;-77
2021/04/27 10:30:15;;;;;;;2.30;0.77;;;;;;;;;;5077564;28;20024;-83
2021/04/27 10:32:42;;;;;;;3.35;1.00;;;;;;;;;;5043933;28;20119;-83
2021/04/27 10:35:09;;;;;;;2.42;0.90;;;;;;;;;;5048708;28;20032;-82
2021/04/27 10:37:54;;;;;;;3.42;0.88;;;;;;;;;;5057102;28;20024;-83
2021/04/27 10:40:39;;;;;;;2.38;0.82;;;;;;;;;;5054905;28;20063;-83
2021/04/27 10:43:25;;;;;;;4.68;0.93;;;;;;;;;;5059387;28;20135;-83
2021/04/27 10:45:52;;;;;;;2.85;1.20;;;;;;;;;;5056833;28;20031;-83
2021/04/27 10:48:24;;;;;;;2.70;0.73;;;;;;;;;;5059403;28;20029;-83
2021/04/27 10:50:50;;;;;;;4.97;0.98;;;;;;;;;;5047426;28;20017;-82
2021/04/27 10:53:30;;;;;;;2.08;0.80;;;;;;;;;;5056517;28;20434;-83
2021/04/27 10:55:57;;;;;;;2.78;1.33;;;;;;;;;;5051557;28;20017;-83
2021/04/27 10:58:42;;;;;;;5.78;1.20;;;;;;;;;;5059150;28;20025;-82
2021/04/27 11:01:27;;;;;;;2.13;0.57;;;;;;;;;;5072261;28;20039;-83
2021/04/27 11:03:54;;;;;;;2.70;0.85;;;;;;;;;;5055920;28;20388;-82
2021/04/27 11:06:20;;;;;;;1.38;0.88;;;;;;;;;;5052446;28;20040;-82
2021/04/27 11:08:48;;;;;;;1.92;0.90;;;;;;;;;;5069609;28;20131;-82
2021/04/27 11:11:27;;;;;;;1.35;0.70;;;;;;;;;;5037362;28;20017;-83
2021/04/27 11:14:13;;;;;;;3.22;0.70;;;;;;;;;;5057118;28;20028;-83
2021/04/27 11:16:43;;;;;;;4.25;0.95;;;;;;;;;;5052808;28;20050;-82
2021/04/27 11:19:30;;;;;;;1.92;0.68;;;;;;;;;;5055329;28;20112;-82
2021/04/27 11:22:14;;;;;;;2.95;1.23;;;;;;;;;;5038607;28;20031;-82
2021/04/27 11:24:40;;;;;;;2.28;1.00;;;;;;;;;;5054188;28;20256;-83
2021/04/27 11:27:19;;;;;;;20.35;1.80;;;;;;;;;;5063431;28;20111;-82
2021/04/27 11:29:52;;;;;;;2.00;0.85;;;;;;;;;;5057405;28;20024;-83
2021/04/27 11:32:24;;;;;;;1.95;0.90;;;;;;;;;;5047529;28;20043;-83
2021/04/27 11:34:53;;;;;;;2.10;0.80;;;;;;;;;;5057717;28;20025;-82
2021/04/27 11:37:27;;;;;;;1.42;0.80;;;;;;;;;;5057017;28;20052;-83
2021/04/27 11:39:54;;;;;;;5.93;1.13;;;;;;;;;;5057036;28;20369;-83
2021/04/27 11:42:24;;;;;;;1.55;0.60;;;;;;;;;;5056664;28;20033;-83
2021/04/27 11:44:54;;;;;;;0.88;0.68;;;;;;;;;;5056934;28;20028;-83
2021/04/27 11:47:20;;;;;;;1.92;0.70;;;;;;;;;;5067244;28;20079;-83
2021/04/27 11:50:04;;;;;;;1.10;0.88;;;;;;;;;;5047608;28;20484;-83
2021/04/27 11:52:49;;;;;;;2.60;0.70;;;;;;;;;;5072218;28;20485;-82
2021/04/27 11:55:27;;;;;;;2.13;0.95;;;;;;;;;;5052461;28;20070;-83
2021/04/27 11:57:55;;;;;;;1.60;0.85;;;;;;;;;;5053431;28;20016;-82
2021/04/27 12:00:26;;;;;;;2.45;0.75;;;;;;;;;;5053679;28;20028;-82
2021/04/27 12:02:52;;;;;;;1.20;0.70;;;;;;;;;;5042059;28;20060;-82
2021/04/27 12:05:19;;;;;;;1.85;0.90;;;;;;;;;;5054094;28;20502;-83
2021/04/27 12:07:44;;;;;;;1.10;0.60;;;;;;;;;;5046568;28;20472;-83
2021/04/27 12:10:10;;;;;;;2.10;0.88;;;;;;;;;;5054234;28;20033;-83
2021/04/27 12:12:37;;;;;;;1.38;0.70;;;;;;;;;;5049634;28;20528;-81
2021/04/27 12:15:03;;;;;;;2.90;1.15;;;;;;;;;;5067926;28;20024;-83
2021/04/27 12:17:31;;;;;;;2.10;0.80;;;;;;;;;;5046539;28;20063;-81
2021/04/27 12:20:17;;;;;;;2.53;0.68;;;;;;;;;;5048123;28;20400;-81
2021/04/27 12:22:56;;;;;;;1.10;0.50;;;;;;;;;;5048357;28;20042;-81
2021/04/27 12:25:24;;;;;;;2.65;0.90;;;;;;;;;;5064282;28;20107;-81
2021/04/27 12:27:51;;;;;;;1.67;0.60;;;;;;;;;;5045520;28;20434;-83
2021/04/27 12:30:22;;;;;;;1.05;0.60;;;;;;;;;;5068604;28;20037;-82
2021/04/27 12:32:59;;;;;;;1.27;0.60;;;;;;;;;;5069485;28;20027;-81
2021/04/27 12:35:26;;;;;;;2.33;0.70;;;;;;;;;;5062641;28;20033;-81
2021/04/27 12:38:06;;;;;;;1.35;0.65;;;;;;;;;;5044576;28;20088;-82
2021/04/27 12:40:33;;;;;;;1.30;0.77;;;;;;;;;;5047313;28;20082;-81
2021/04/27 12:43:08;;;;;;;1.48;0.60;;;;;;;;;;5049079;28;20102;-82
2021/04/27 12:45:55;;;;;;;3.40;0.68;;;;;;;;;;5039714;28;20399;-81
2021/04/27 12:48:22;;;;;;;0.95;0.40;;;;;;;;;;5071207;28;20081;-82
2021/04/27 12:50:49;;;;;;;1.38;0.65;;;;;;;;;;5073916;28;20012;-82
2021/04/27 12:53:16;;;;;;;1.55;0.70;;;;;;;;;;5066612;28;20035;-81
2021/04/27 12:55:48;;;;;;;1.58;0.70;;;;;;;;;;5066196;28;20031;-81
2021/04/27 12:58:15;;;;;;;1.70;0.60;;;;;;;;;;5071144;28;20056;-82
2021/04/27 13:00:50;;;;;;;0.95;0.40;;;;;;;;;;5071503;28;20098;-83
2021/04/27 13:03:17;;;;;;;1.17;0.60;;;;;;;;;;5064614;28;20074;-83
2021/04/27 13:05:43;;;;;;;3.10;0.57;;;;;;;;;;5066392;28;20533;-82
2021/04/27 13:08:09;;;;;;;1.70;0.50;;;;;;;;;;5056310;28;20037;-84
2021/04/27 13:10:40;;;;;;;1.33;0.55;;;;;;;;;;5051037;28;20488;-84
2021/04/27 13:13:20;;;;;;;1.05;0.40;;;;;;;;;;5051868;28;20021;-83
2021/04/27 13:15:52;;;;;;;0.75;0.47;;;;;;;;;;5044682;28;20107;-83
2021/04/27 13:18:21;;;;;;;1.77;0.63;;;;;;;;;;5044233;28;20040;-83
2021/04/27 13:20:49;;;;;;;1.35;0.40;;;;;;;;;;5055578;28;20070;-83
2021/04/27 13:23:17;;;;;;;1.58;0.63;;;;;;;;;;5055459;28;20101;-83
2021/04/27 13:25:47;;;;;;;2.53;0.85;;;;;;;;;;5068108;28;20071;-82
2021/04/27 13:28:16;;;;;;;1.02;0.60;;;;;;;;;;5053116;28;20036;-82
2021/04/27 13:30:52;;;;;;;1.65;0.60;;;;;;;;;;5053496;28;20071;-82
2021/04/27 13:33:22;;;;;;;3.08;0.82;;;;;;;;;;5051794;28;20021;-82
2021/04/27 13:35:52;;;;;;;2.45;0.70;;;;;;;;;;5053326;28;20066;-82
2021/04/27 13:38:23;;;;;;;0.88;0.68;;;;;;;;;;5052149;28;20425;-83
2021/04/27 13:40:50;;;;;;;1.55;0.77;;;;;;;;;;5052419;28;20174;-83
2021/04/27 13:43:17;;;;;;;1.30;0.50;;;;;;;;;;5054657;28;20119;-82
2021/04/27 13:45:44;;;;;;;4.43;0.65;;;;;;;;;;5073504;28;20024;-82
2021/04/27 13:48:11;;;;;;;2.20;0.75;;;;;;;;;;5055747;28;20040;-82
2021/04/27 13:50:38;;;;;;;4.55;0.70;;;;;;;;;;5035233;28;20094;-82
2021/04/27 13:53:05;;;;;;;1.98;0.70;;;;;;;;;;5053376;28;20084;-82
2021/04/27 13:55:32;;;;;;;1.10;0.52;;;;;;;;;;5051933;28;20047;-82
2021/04/27 13:57:58;;;;;;;0.85;0.50;;;;;;;;;;5054280;28;20055;-83
2021/04/27 14:00:25;;;;;;;3.17;0.85;;;;;;;;;;5074114;28;20125;-82
2021/04/27 14:02:51;;;;;;;2.33;0.82;;;;;;;;;;5073370;28;20103;-82
2021/04/27 14:05:18;;;;;;;1.10;0.40;;;;;;;;;;5071309;28;20060;-82
2021/04/27 14:07:44;;;;;;;1.95;0.60;;;;;;;;;;5053689;28;20488;-82
2021/04/27 14:10:12;;;;;;;4.03;0.50;;;;;;;;;;5070607;28;20055;-84
2021/04/27 14:12:38;;;;;;;1.98;0.60;;;;;;;;;;5063365;28;20044;-82
2021/04/27 14:15:06;;;;;;;4.10;0.60;;;;;;;;;;5062375;28;20013;-82
2021/04/27 14:17:32;;;;;;;2.58;1.35;;;;;;;;;;5047287;28;20545;-82
2021/04/27 14:19:58;;;;;;;2.00;0.70;;;;;;;;;;5047620;28;20025;-81
2021/04/27 14:22:24;;;;;;;2.88;0.70;;;;;;;;;;5046278;28;20013;-82
2021/04/27 14:24:50;;;;;;;3.05;0.70;;;;;;;;;;5046038;28;20032;-82
2021/04/27 14:27:16;;;;;;;4.10;0.90;;;;;;;;;;5059098;28;20021;-82
2021/04/27 14:29:43;;;;;;;1.90;0.90;;;;;;;;;;5061735;28;20025;-83
2021/04/27 14:32:10;;;;;;;3.85;0.88;;;;;;;;;;5050180;28;20021;-82
2021/04/27 14:34:37;;;;;;;1.55;0.60;;;;;;;;;;5071857;28;20487;-83
2021/04/27 14:37:03;;;;;;;1.63;0.90;;;;;;;;;;5067384;28;20116;-84
2021/04/27 14:39:29;;;;;;;1.80;0.90;;;;;;;;;;5054375;28;20063;-83
2021/04/27 14:41:55;;;;;;;1.73;0.70;;;;;;;;;;5053965;28;20020;-83
2021/04/27 14:44:21;;;;;;;1.80;0.70;;;;;;;;;;5054962;28;20082;-82
2021/04/27 14:46:47;;;;;;;1.00;0.60;;;;;;;;;;5076959;28;20483;-82
2021/04/27 14:49:13;;;;;;;4.70;0.75;;;;;;;;;;5055641;28;20181;-82